地図

経路データ

SID SEASON NUMBER BASIN SUBBASIN NAME ISO_TIME NATURE LAT LON WMO_WIND WMO_PRES WMO_AGENCY TRACK_TYPE DIST2LAND LANDFALL IFLAG USA_AGENCY USA_ATCF_ID USA_LAT USA_LON USA_RECORD USA_STATUS USA_WIND USA_PRES USA_SSHS USA_R34_NE USA_R34_SE USA_R34_SW USA_R34_NW USA_R50_NE USA_R50_SE USA_R50_SW USA_R50_NW USA_R64_NE USA_R64_SE USA_R64_SW USA_R64_NW USA_POCI USA_ROCI USA_RMW USA_EYE TOKYO_LAT TOKYO_LON TOKYO_GRADE TOKYO_WIND TOKYO_PRES TOKYO_R50_DIR TOKYO_R50_LONG TOKYO_R50_SHORT TOKYO_R30_DIR TOKYO_R30_LONG TOKYO_R30_SHORT TOKYO_LAND CMA_LAT CMA_LON CMA_CAT CMA_WIND CMA_PRES HKO_LAT HKO_LON HKO_CAT HKO_WIND HKO_PRES NEWDELHI_LAT NEWDELHI_LON NEWDELHI_GRADE NEWDELHI_WIND NEWDELHI_PRES NEWDELHI_CI NEWDELHI_DP NEWDELHI_POCI REUNION_LAT REUNION_LON REUNION_TYPE REUNION_WIND REUNION_PRES REUNION_TNUM REUNION_CI REUNION_RMW REUNION_R34_NE REUNION_R34_SE REUNION_R34_SW REUNION_R34_NW REUNION_R50_NE REUNION_R50_SE REUNION_R50_SW REUNION_R50_NW REUNION_R64_NE REUNION_R64_SE REUNION_R64_SW REUNION_R64_NW BOM_LAT BOM_LON BOM_TYPE BOM_WIND BOM_PRES BOM_TNUM BOM_CI BOM_RMW BOM_R34_NE BOM_R34_SE BOM_R34_SW BOM_R34_NW BOM_R50_NE BOM_R50_SE BOM_R50_SW BOM_R50_NW BOM_R64_NE BOM_R64_SE BOM_R64_SW BOM_R64_NW BOM_ROCI BOM_POCI BOM_EYE BOM_POS_METHOD BOM_PRES_METHOD NADI_LAT NADI_LON NADI_CAT NADI_WIND NADI_PRES WELLINGTON_LAT WELLINGTON_LON WELLINGTON_WIND WELLINGTON_PRES DS824_LAT DS824_LON DS824_STAGE DS824_WIND DS824_PRES TD9636_LAT TD9636_LON TD9636_STAGE TD9636_WIND TD9636_PRES TD9635_LAT TD9635_LON TD9635_WIND TD9635_PRES TD9635_ROCI NEUMANN_LAT NEUMANN_LON NEUMANN_CLASS NEUMANN_WIND NEUMANN_PRES MLC_LAT MLC_LON MLC_CLASS MLC_WIND MLC_PRES USA_GUST BOM_GUST BOM_GUST_PER REUNION_GUST REUNION_GUST_PER USA_SEAHGT USA_SEARAD_NE USA_SEARAD_SE USA_SEARAD_SW USA_SEARAD_NW STORM_SPEED STORM_DIR
1980197N15133 1980 48 WP MM NOT_NAMED 1980-07-14 18:00:00 TS 14.5000 132.500 main 800 739 __O___________ -1 14.5000 132.500 0 19 1006 13 269
1980197N15133 1980 48 WP MM NOT_NAMED 1980-07-14 21:00:00 TS 14.4924 131.812 main 728 658 __P___________ -1 14.4924 131.812 0 21 1006 15 270
1980197N15133 1980 48 WP MM NOT_NAMED 1980-07-15 00:00:00 TS 14.5000 131.000 main 648 560 __O___________ -1 14.5000 131.000 1 23 1006 18 271
1980197N15133 1980 48 WP MM NOT_NAMED 1980-07-15 03:00:00 TS 14.5229 130.000 main 550 470 __P___________ -1 14.5229 130.000 1 23 1005 17 267
1980197N15133 1980 48 WP MM NOT_NAMED 1980-07-15 06:00:00 TS 14.4000 129.200 main 470 401 __OO__________ -1 14.5000 129.000 1 23 1004 14.0000 130.000 TD 25 1004 15 262
1980197N15133 1980 48 WP MM NOT_NAMED 1980-07-15 09:00:00 TS 14.3054 128.487 main 401 342 __PP__________ -1 14.3114 128.257 1 23 1004 14.2935 128.948 TD 27 1004 15 269
1980197N15133 1980 48 WP MM NOT_NAMED 1980-07-15 12:00:00 TS 14.3714 127.671 main 342 260 __OO__________ -1 14.2000 127.500 1 23 1004 14.6000 127.900 TD 30 1004 18 281
1980197N15133 1980 48 WP MM NOT_NAMED 1980-07-15 15:00:00 TS 14.6573 126.669 main 263 157 __PP__________ -1 14.4053 126.481 1 23 1004 14.9094 126.858 TD 30 1004 21 278
1980197N15133 1980 48 WP MM NOT_NAMED 1980-07-15 18:00:00 TS 14.6545 125.545 main 148 79 O_OO_____OO___ jtwc_wp WP101980 14.0000 125.400 20 -1 14.7000 125.400 1 23 1004 15.1000 125.800 TD 30 1004 14.0000 125.400 TC 20 14.0000 125.400 1 20 20 267
1980197N15133 1980 48 WP MM NOT_NAMED 1980-07-15 21:00:00 TS 14.5535 124.603 main 74 55 P_PP_____PP___ WP101980 13.9802 124.677 20 -1 14.8873 124.405 1 26 1004 15.0747 124.700 TD 30 1004 13.9802 124.677 TC 20 13.9902 124.654 1 20 18 263
1980197N15133 1980 48 WP MM NOT_NAMED 1980-07-16 00:00:00 TS 14.4471 123.735 main 55 22 O_OO_____OO___ jtwc_wp WP101980 14.0000 123.900 20 -1 15.0000 123.500 1 29 1004 14.9000 123.600 TD 30 1004 14.0000 123.900 TC 20 14.0000 123.900 1 20 17 264
1980197N15133 1980 48 WP MM NOT_NAMED 1980-07-16 03:00:00 TS 14.3718 122.879 main 22 22 P_PP_____PP___ WP101980 14.0851 123.043 20 -1 15.0068 122.735 1 29 1004 14.6354 122.444 TD 30 1005 14.0851 123.043 TC 20 14.0468 123.131 1 21 16 268
1980197N15133 1980 48 WP MM NOT_NAMED 1980-07-16 06:00:00 TS 14.3863 122.051 main 35 0 O_OO_____OP___ jtwc_wp WP101980 14.2000 122.200 20 -1 15.0000 122.000 1 29 1004 14.4000 121.500 TD 30 1006 14.2000 122.200 TC 20 14.1313 122.353 1 22 15 273
1980197N15133 1980 48 WP MM NOT_NAMED 1980-07-16 09:00:00 TS 14.4501 121.356 main 0 0 P_PP_____PP___ WP101980 14.2919 121.492 22 -1 15.1000 121.150 1 29 1004 14.3162 121.070 TD 30 1006 14.2919 121.492 TC 22 14.2501 121.573 1 23 13 277
1980197N15133 1980 48 WP MM NOT_NAMED 1980-07-16 12:00:00 TS 14.5600 120.680 main 10 0 O_OO_____OO___ jtwc_wp WP101980 14.4000 120.800 25 -1 15.2000 120.300 1 29 1004 14.4000 120.700 TD 30 1006 14.4000 120.800 TC 25 14.4000 120.800 1 25 14 279
1980197N15133 1980 48 WP MM NOT_NAMED 1980-07-16 15:00:00 TS 14.6789 119.892 main 24 24 P_PP_____PP___ WP101980 14.5275 120.000 25 -1 15.1997 119.520 1 29 1004 14.6178 119.917 TD 30 1006 14.5275 120.000 TC 25 14.5221 120.026 1 26 16 281
1980197N15133 1980 48 WP MM NOT_NAMED 1980-07-16 18:00:00 TS 14.8559 119.092 main 102 102 O_OO_____OP___ jtwc_wp WP101980 14.7000 119.200 25 -1 15.2000 118.800 1 29 1004 15.0000 119.000 TD 30 1006 14.7000 119.200 TC 25 14.6795 119.261 1 27 16 285
1980197N15133 1980 48 WP MM NOT_NAMED 1980-07-16 21:00:00 TS 15.0903 118.345 main 174 174 P_PP_____PP___ WP101980 14.9121 118.492 27 -1 15.2172 118.134 1 29 1003 15.5128 118.091 TD 30 1005 14.9121 118.492 TC 27 14.8972 118.516 1 28 15 292
1980197N15133 1980 48 WP MM NOT_NAMED 1980-07-17 00:00:00 TS 15.4200 117.640 main 234 231 O_OO_____OO___ jtwc_wp WP101980 15.2000 117.800 30 -1 15.4000 117.500 1 29 1002 16.1000 117.300 TD 30 1004 15.2000 117.800 TC 30 15.2000 117.800 1 30 16 300
1980197N15133 1980 48 WP MM NOT_NAMED 1980-07-17 03:00:00 TS 15.8685 116.944 main 299 299 P_PP_____PP___ WP101980 15.5476 117.027 30 -1 15.9425 116.828 1 29 1001 16.6870 116.767 TD 30 1004 15.5476 117.027 TC 30 15.6177 117.070 1 30 16 307
1980197N15133 1980 48 WP MM NOT_NAMED 1980-07-17 06:00:00 TS 16.3635 116.315 main 365 365 O_OO_____OP___ jtwc_wp WP101980 16.0000 116.300 30 -1 16.5000 116.200 1 29 1000 17.2000 116.400 TD 30 1004 16.0000 116.300 TC 30 16.1176 116.374 1 30 15 310
1980197N15133 1980 48 WP MM NOT_NAMED 1980-07-17 09:00:00 TS 16.8061 115.771 main 425 425 P_PP_____PP___ WP101980 16.5773 115.697 30 -1 16.6798 115.654 1 29 1000 17.5374 116.062 TD 30 1003 16.5773 115.697 TC 30 16.6587 115.742 1 30 13 313
1980197N15133 1980 48 WP MM NOT_NAMED 1980-07-17 12:00:00 TS 17.2400 115.320 main 487 471 O_OO_____OO___ jtwc_wp WP101980 17.2000 115.200 30 -1 16.8000 115.200 1 29 1000 17.8000 115.800 TD 30 1003 17.2000 115.200 TC 30 17.2000 115.200 1 30 12 318
1980197N15133 1980 48 WP MM NOT_NAMED 1980-07-17 15:00:00 TS 17.6915 114.942 main 462 414 P_PP_____PP___ WP101980 17.7799 114.755 30 -1 17.0972 114.850 1 29 1000 18.1074 115.585 TD 30 1001 17.7799 114.755 TC 30 17.6932 114.764 1 30 11 323
1980197N15133 1980 48 WP MM NOT_NAMED 1980-07-17 18:00:00 TS 18.1357 114.624 main 414 368 O_OO_____OP___ jtwc_wp WP101980 18.3000 114.400 30 -1 17.5000 114.500 1 29 1000 18.4000 115.400 TD 30 1000 18.3000 114.400 TC 30 18.1786 114.421 1 30 10 325
1980197N15133 1980 48 WP MM NOT_NAMED 1980-07-17 21:00:00 TS 18.5430 114.310 main 368 334 P_PP_____PP___ WP101980 18.7224 114.120 30 -1 17.9779 113.956 1 29 1000 18.6424 115.215 TD 32 999 18.7224 114.120 TC 30 18.6498 114.143 1 30 10 325
1980197N15133 1980 48 WP MM NOT_NAMED 1980-07-18 00:00:00 TS 18.9400 114.040 main 324 295 O_OO_____OO___ jtwc_wp WP101980 19.1000 113.900 30 -1 18.5000 113.500 1 29 1000 18.9000 115.000 TS 35 998 19.1000 113.900 TC 30 19.1000 113.900 1 30 9 331
1980197N15133 1980 48 WP MM NOT_NAMED 1980-07-18 03:00:00 TS 19.3597 113.834 main 291 256 P_PP_____PP___ WP101980 19.4999 113.700 30 -1 19.0222 113.419 1 33 999 19.2350 114.722 TS 35 997 19.4999 113.700 TC 30 19.5417 113.630 1 30 9 335
1980197N15133 1980 48 WP MM NOT_NAMED 1980-07-18 06:00:00 TS 19.7719 113.638 main 242 205 O_OO_____OP___ jtwc_wp WP101980 19.9000 113.500 30 -1 19.5000 113.400 2 38 999 19.6000 114.400 TS 35 996 19.9000 113.500 TC 30 19.9597 113.390 1 30 9 332
1980197N15133 1980 48 WP MM NOT_NAMED 1980-07-18 09:00:00 TS 20.1646 113.374 main 194 154 P_PP_____PP___ WP101980 20.3151 113.235 30 -1 19.9025 113.145 2 38 998 19.9424 114.072 TS 35 997 20.3151 113.235 TC 30 20.3480 113.180 1 30 9 326
1980197N15133 1980 48 WP MM NOT_NAMED 1980-07-18 12:00:00 TS 20.5200 113.100 main 154 116 O_OO_____OO___ jtwc_wp WP101980 20.7000 113.000 30 -1 20.2000 112.800 2 38 998 20.3000 113.700 TS 35 998 20.7000 113.000 TC 30 20.7000 113.000 1 30 8 324
1980197N15133 1980 48 WP MM NOT_NAMED 1980-07-18 15:00:00 TS 20.8251 112.856 main 116 73 P_PP_____PP___ WP101980 21.0224 112.885 30 -1 20.3576 112.420 2 38 998 20.7000 113.258 TS 32 999 21.0224 112.885 TC 30 21.0230 112.834 1 30 7 323
1980197N15133 1980 48 WP MM NOT_NAMED 1980-07-18 18:00:00 TS 21.1021 112.631 main 73 49 O_OO_____OP___ jtwc_wp WP101980 21.3000 112.800 30 -1 20.5000 112.100 2 38 998 21.1000 112.800 TD 30 1000 21.3000 112.800 TC 30 21.3098 112.697 1 30 7 325
1980197N15133 1980 48 WP MM NOT_NAMED 1980-07-18 21:00:00 TS 21.3573 112.460 main 39 11 P_PP_____PP___ WP101980 21.5350 112.650 30 -1 20.7398 111.992 2 38 998 21.4626 112.385 TD 30 1000 21.5350 112.650 TC 30 21.5668 112.587 1 30 6 329
1980197N15133 1980 48 WP MM NOT_NAMED 1980-07-19 00:00:00 TS 21.6133 112.307 main 11 0 O_OO_____OO___ jtwc_wp WP101980 21.8000 112.500 30 -1 21.1000 111.900 2 38 998 21.8000 112.000 TD 30 1000 21.8000 112.500 TC 30 21.8000 112.500 1 30 6 340
1980197N15133 1980 48 WP MM NOT_NAMED 1980-07-19 03:00:00 TS 21.9608 112.220 main 0 0 P_P______PP___ WP101980 22.1675 112.388 25 -1 21.6995 111.840 2 30 998 TD 22.1675 112.388 TC 25 22.0154 112.433 1 27 8 330
1980197N15133 1980 48 WP MM NOT_NAMED 1980-07-19 06:00:00 TS 22.2947 111.882 main 0 0 O_O______OP___ jtwc_wp WP101980 22.6000 112.300 20 -1 22.2000 111.300 1 23 999 22.6000 112.300 TC 20 22.2176 112.380 1 25 16 284
1980197N15133 1980 48 WP MM NOT_NAMED 1980-07-19 09:00:00 TS 22.3507 110.588 main 0 0 __P_______P___ WP101980 -1 22.3206 109.713 1 21 999 TC 22.4110 112.338 1 22 29 268
1980197N15133 1980 48 WP MM NOT_NAMED 1980-07-19 12:00:00 TS 22.2000 108.780 main 0 0 __O_______O___ -1 22.1000 107.900 0 19 1000 22.6000 112.300 1 20 37 258
1980197N15133 1980 48 WP MM NOT_NAMED 1980-07-19 15:00:00 TS 21.5775 106.729 main 0 0 __P___________ -1 21.5775 106.729 0 19 1000 1 30 247
1980197N15133 1980 48 WP MM NOT_NAMED 1980-07-19 18:00:00 TS 21.0000 105.800 main 0 0 __O___________ -1 21.0000 105.800 0 19 1000 1 19 242
1980197N15133 1980 48 WP MM NOT_NAMED 1980-07-19 21:00:00 TS 20.6667 104.903 main 0 0 __P___________ -1 20.6667 104.903 0 19 1001 1 18 253
1980197N15133 1980 48 WP MM NOT_NAMED 1980-07-20 00:00:00 TS 20.5000 104.000 main 0 __O___________ -1 20.5000 104.000 0 19 1002 17 259

デジタル台風データ・検索

IBTrACS Databaseについて

本データベースは、米国NOAAが公開する1842年以降の世界の熱帯低気圧のベストトラックデータアーカイブInternational Best Track Archive for Climate Stewardship (IBTrACS)を、ウェブで閲覧しやすい形式に変換したものです。

最終更新日:2021-10-19